Time;durP1;ratioP1;P1;durP2;ratioP2;P2;SDS_P1;SDS_P2;PMS_P1;PMS_P2;Temp;Humidity;BMP_temperature;BMP_pressure;BME280_temperature;BME280_humidity;BME280_pressure;Samples;Min_cycle;Max_cycle;Signal;HPM_P1;HPM_P2
2022/03/08 00:02:25;;;;;;;0.88;0.88;;;0.00;99.90;;;;;;5091761;28;20545;-78
2022/03/08 00:04:52;;;;;;;0.50;0.40;;;-0.10;99.90;;;;;;5093516;28;20268;-79
2022/03/08 00:07:18;;;;;;;1.38;1.35;;;0.00;99.90;;;;;;5093549;28;20671;-78
2022/03/08 00:09:45;;;;;;;0.50;0.45;;;0.10;99.90;;;;;;5092326;28;20209;-78
2022/03/08 00:12:12;;;;;;;0.50;0.40;;;0.20;99.90;;;;;;5092892;28;20193;-79
2022/03/08 00:14:39;;;;;;;0.50;0.45;;;0.20;99.90;;;;;;5090835;28;20185;-79
2022/03/08 00:17:07;;;;;;;0.50;0.40;;;0.20;99.90;;;;;;5093098;28;20197;-78
2022/03/08 00:19:33;;;;;;;1.77;1.67;;;0.30;99.90;;;;;;5092437;28;20219;-79
2022/03/08 00:22:00;;;;;;;0.50;0.40;;;0.30;99.90;;;;;;5092513;28;20332;-79
2022/03/08 00:24:27;;;;;;;1.67;1.60;;;0.40;99.90;;;;;;5093227;28;20519;-78
2022/03/08 00:26:54;;;;;;;0.50;0.40;;;0.30;99.90;;;;;;5093126;28;20198;-81
2022/03/08 00:29:21;;;;;;;0.50;0.50;;;0.40;99.90;;;;;;5092131;28;20194;-79
2022/03/08 00:31:48;;;;;;;0.50;0.40;;;0.40;99.90;;;;;;5092332;28;20643;-76
2022/03/08 00:34:16;;;;;;;0.50;0.40;;;0.30;99.90;;;;;;5093071;28;20196;-79
2022/03/08 00:36:43;;;;;;;0.50;0.40;;;0.30;99.90;;;;;;5092588;28;20566;-79
2022/03/08 00:39:10;;;;;;;0.50;0.50;;;0.30;99.90;;;;;;5091720;28;20212;-79
2022/03/08 00:41:37;;;;;;;0.50;0.50;;;0.20;99.90;;;;;;5092972;28;20218;-79
2022/03/08 00:44:05;;;;;;;0.50;0.40;;;0.20;99.90;;;;;;5092659;28;20267;-79
2022/03/08 00:46:31;;;;;;;0.50;0.40;;;0.10;99.90;;;;;;5092181;28;20195;-78
2022/03/08 00:48:58;;;;;;;0.50;0.40;;;0.10;99.90;;;;;;5092496;28;20191;-76
2022/03/08 00:51:26;;;;;;;0.50;0.50;;;0.00;99.90;;;;;;5093379;28;20210;-79
2022/03/08 00:53:53;;;;;;;0.60;0.50;;;0.00;99.90;;;;;;5092837;28;20650;-79
2022/03/08 00:56:20;;;;;;;0.50;0.50;;;-0.10;99.90;;;;;;5092374;28;20382;-79
2022/03/08 00:58:47;;;;;;;0.50;0.40;;;-0.10;99.90;;;;;;5092525;28;20189;-78
2022/03/08 01:01:13;;;;;;;0.50;0.40;;;-0.10;99.90;;;;;;5092322;28;20597;-78
2022/03/08 01:03:40;;;;;;;0.50;0.47;;;-0.20;99.90;;;;;;5091888;28;20228;-78
2022/03/08 01:06:07;;;;;;;0.50;0.40;;;-0.20;99.90;;;;;;5092357;28;20190;-78
2022/03/08 01:08:35;;;;;;;0.50;0.40;;;-0.20;99.90;;;;;;5092662;28;20279;-79
2022/03/08 01:11:02;;;;;;;0.50;0.40;;;-0.30;99.90;;;;;;5096581;28;20283;-78
2022/03/08 01:13:28;;;;;;;0.50;0.40;;;-0.30;99.90;;;;;;5096705;28;20187;-79
2022/03/08 01:15:55;;;;;;;0.50;0.50;;;-0.30;99.90;;;;;;5097171;28;20190;-78
2022/03/08 01:18:22;;;;;;;0.50;0.40;;;-0.30;99.90;;;;;;5096471;28;20194;-78
2022/03/08 01:20:49;;;;;;;0.50;0.50;;;-0.40;99.90;;;;;;5096090;28;20213;-78
2022/03/08 01:23:16;;;;;;;0.80;0.80;;;-0.50;99.90;;;;;;5096027;28;20259;-79
2022/03/08 01:25:44;;;;;;;0.50;0.40;;;-0.50;99.90;;;;;;5096986;28;20195;-79
2022/03/08 01:28:11;;;;;;;0.50;0.47;;;-0.60;99.90;;;;;;5096385;28;20581;-78
2022/03/08 01:30:37;;;;;;;0.50;0.40;;;-0.60;99.90;;;;;;5095159;28;20312;-79
2022/03/08 01:33:05;;;;;;;0.50;0.40;;;-0.70;99.90;;;;;;5140157;22;20224;-77
2022/03/08 01:35:31;;;;;;;0.75;0.75;;;-0.70;99.90;;;;;;5084859;28;20197;-78
2022/03/08 01:37:58;;;;;;;0.50;0.50;;;-0.70;99.90;;;;;;5092189;28;20218;-79
2022/03/08 01:40:25;;;;;;;0.50;0.40;;;-0.70;99.90;;;;;;5094903;28;20194;-78
2022/03/08 01:42:53;;;;;;;0.50;0.40;;;-0.70;99.90;;;;;;5094730;28;20218;-78
2022/03/08 01:45:22;;;;;;;0.50;0.50;;;-0.70;99.90;;;;;;5095239;28;20197;-78
2022/03/08 01:47:49;;;;;;;0.50;0.50;;;-0.70;99.90;;;;;;5095421;28;20196;-78
2022/03/08 01:50:17;;;;;;;0.50;0.40;;;-0.80;99.90;;;;;;5094793;28;20194;-78
2022/03/08 01:52:44;;;;;;;0.50;0.40;;;-0.90;99.90;;;;;;5095796;28;20208;-78
2022/03/08 01:55:13;;;;;;;0.60;0.60;;;-0.90;99.90;;;;;;5095234;28;20204;-78
2022/03/08 01:57:40;;;;;;;0.50;0.50;;;-0.90;99.90;;;;;;5095247;28;20220;-78
2022/03/08 02:00:12;;;;;;;0.50;0.40;;;-0.90;99.90;;;;;;5093916;28;20202;-78
2022/03/08 02:02:39;;;;;;;0.50;0.50;;;-0.90;99.90;;;;;;5093870;28;20213;-77
2022/03/08 02:05:06;;;;;;;0.50;0.40;;;-1.00;99.90;;;;;;5094957;28;20664;-79
2022/03/08 02:07:34;;;;;;;0.50;0.50;;;-1.00;99.90;;;;;;5094899;28;20186;-79
2022/03/08 02:10:01;;;;;;;0.50;0.40;;;-0.90;99.90;;;;;;5093606;28;20189;-78
2022/03/08 02:12:27;;;;;;;0.60;0.50;;;-1.00;99.90;;;;;;5094709;28;20216;-77
2022/03/08 02:14:54;;;;;;;0.50;0.50;;;-1.00;99.90;;;;;;5094968;28;20192;-78
2022/03/08 02:17:22;;;;;;;0.50;0.50;;;-1.00;99.90;;;;;;5094997;28;20535;-78
2022/03/08 02:19:49;;;;;;;0.50;0.40;;;-1.00;99.90;;;;;;5093956;28;20189;-78
2022/03/08 02:22:17;;;;;;;0.50;0.47;;;-1.10;99.90;;;;;;5094232;28;20258;-77
2022/03/08 02:24:44;;;;;;;0.50;0.40;;;-1.10;99.90;;;;;;5094890;28;20185;-78
2022/03/08 02:27:11;;;;;;;0.50;0.40;;;-1.10;99.90;;;;;;5094432;28;20190;-78
2022/03/08 02:29:38;;;;;;;0.50;0.40;;;-1.10;99.90;;;;;;5093975;28;20190;-77
2022/03/08 02:32:06;;;;;;;0.50;0.45;;;-1.10;99.90;;;;;;5094524;28;20225;-78
2022/03/08 02:34:32;;;;;;;0.50;0.50;;;-1.10;99.90;;;;;;5094121;28;20520;-78
2022/03/08 02:37:04;;;;;;;0.50;0.50;;;-1.10;99.90;;;;;;5094546;28;20190;-78
2022/03/08 02:39:32;;;;;;;0.50;0.40;;;-1.10;99.90;;;;;;5093303;28;20310;-79
2022/03/08 02:41:58;;;;;;;0.50;0.40;;;-1.10;99.90;;;;;;5094858;28;20217;-78
2022/03/08 02:44:25;;;;;;;0.50;0.50;;;-1.10;99.90;;;;;;5094258;28;20223;-78
2022/03/08 02:46:52;;;;;;;0.50;0.45;;;-1.10;99.90;;;;;;5094167;28;20203;-77
2022/03/08 02:49:19;;;;;;;0.50;0.47;;;-1.20;99.90;;;;;;5093690;28;20191;-78
2022/03/08 02:51:46;;;;;;;0.50;0.50;;;-1.20;99.90;;;;;;5094246;28;20216;-78
2022/03/08 02:54:13;;;;;;;0.50;0.40;;;-1.20;99.90;;;;;;5094248;28;20185;-78
2022/03/08 02:56:41;;;;;;;1.50;1.40;;;-1.20;99.90;;;;;;5093897;28;20189;-78
2022/03/08 02:59:08;;;;;;;0.50;0.50;;;-1.10;99.90;;;;;;5093308;28;20201;-79
2022/03/08 03:01:34;;;;;;;0.50;0.50;;;-1.00;99.90;;;;;;5094230;28;20225;-78
2022/03/08 03:04:01;;;;;;;0.50;0.47;;;-1.00;99.90;;;;;;5093888;28;20207;-78
2022/03/08 03:06:28;;;;;;;0.50;0.40;;;-0.90;99.90;;;;;;5093564;28;20197;-77
2022/03/08 03:08:55;;;;;;;0.50;0.50;;;-0.90;99.90;;;;;;5093559;28;20216;-78
2022/03/08 03:11:21;;;;;;;0.50;0.45;;;-0.80;99.90;;;;;;5093675;28;20194;-78
2022/03/08 03:13:49;;;;;;;0.50;0.40;;;-0.80;99.90;;;;;;5093978;28;20193;-78
2022/03/08 03:16:16;;;;;;;0.50;0.40;;;-0.80;99.90;;;;;;5093960;28;20650;-78
2022/03/08 03:18:43;;;;;;;0.50;0.40;;;-0.80;99.90;;;;;;5093633;28;20192;-78
2022/03/08 03:21:10;;;;;;;0.50;0.40;;;-0.80;99.90;;;;;;5094152;28;20211;-77
2022/03/08 03:23:36;;;;;;;0.50;0.40;;;-0.90;99.90;;;;;;5094740;28;20700;-77
2022/03/08 03:26:03;;;;;;;0.50;0.40;;;-0.80;99.90;;;;;;5094907;28;20207;-77
2022/03/08 03:28:30;;;;;;;0.52;0.47;;;-0.80;99.90;;;;;;5094808;28;20198;-78
2022/03/08 03:30:58;;;;;;;0.50;0.40;;;-0.80;99.90;;;;;;5093734;28;20193;-78
2022/03/08 03:33:25;;;;;;;0.50;0.40;;;-0.80;99.90;;;;;;5092358;28;20237;-78
2022/03/08 03:35:51;;;;;;;0.50;0.40;;;-0.80;99.90;;;;;;5093552;28;20663;-78
2022/03/08 03:38:18;;;;;;;0.50;0.40;;;-0.80;99.90;;;;;;5093254;28;20204;-78
2022/03/08 03:40:45;;;;;;;0.50;0.40;;;-0.80;99.90;;;;;;5092330;28;20197;-77
2022/03/08 03:43:12;;;;;;;0.50;0.43;;;-0.80;99.90;;;;;;5093096;28;20217;-78
2022/03/08 03:45:38;;;;;;;0.50;0.50;;;-0.80;99.90;;;;;;5092925;28;20246;-78
2022/03/08 03:48:06;;;;;;;0.50;0.45;;;-0.80;99.90;;;;;;5092722;28;20193;-78
2022/03/08 03:50:33;;;;;;;0.50;0.40;;;-0.80;99.90;;;;;;5092845;28;20193;-78
2022/03/08 03:53:00;;;;;;;1.00;1.00;;;-0.80;99.90;;;;;;5093143;28;20705;-77
2022/03/08 03:55:27;;;;;;;0.50;0.43;;;-0.90;99.90;;;;;;5092593;28;20196;-78
2022/03/08 03:57:54;;;;;;;0.50;0.40;;;-0.90;99.90;;;;;;5093230;28;20585;-77
2022/03/08 04:00:21;;;;;;;0.50;0.50;;;-1.00;99.90;;;;;;5091936;28;20197;-78
2022/03/08 04:02:47;;;;;;;0.50;0.40;;;-1.00;99.90;;;;;;5091892;28;20218;-76
2022/03/08 04:05:15;;;;;;;0.50;0.50;;;-1.00;99.90;;;;;;5092900;28;20197;-78
2022/03/08 04:07:43;;;;;;;0.50;0.40;;;-1.10;99.90;;;;;;5092512;28;20189;-78
2022/03/08 04:10:11;;;;;;;0.50;0.50;;;-1.10;99.90;;;;;;5091879;28;20189;-78
2022/03/08 04:12:38;;;;;;;0.50;0.50;;;-1.20;99.90;;;;;;5092873;28;20320;-78
2022/03/08 04:15:06;;;;;;;0.50;0.50;;;-1.20;99.90;;;;;;5093075;28;20539;-76
2022/03/08 04:17:33;;;;;;;0.50;0.40;;;-1.20;99.90;;;;;;5092616;28;20193;-79
2022/03/08 04:19:59;;;;;;;0.50;0.50;;;-1.10;99.90;;;;;;5091575;28;20697;-78
2022/03/08 04:22:28;;;;;;;0.50;0.50;;;-1.10;99.90;;;;;;5092780;28;20244;-78
2022/03/08 04:24:54;;;;;;;0.50;0.40;;;-1.20;99.90;;;;;;5092253;28;20737;-77
2022/03/08 04:27:21;;;;;;;0.50;0.40;;;-1.10;99.90;;;;;;5092178;28;20651;-79
2022/03/08 04:29:48;;;;;;;1.05;0.93;;;-1.10;99.90;;;;;;5091958;28;20185;-77
2022/03/08 04:32:15;;;;;;;0.50;0.47;;;-1.10;99.90;;;;;;5092229;28;20224;-77
2022/03/08 04:34:41;;;;;;;0.70;0.70;;;-1.10;99.90;;;;;;5092415;28;20816;-77
2022/03/08 04:37:08;;;;;;;0.50;0.50;;;-1.10;99.90;;;;;;5092452;28;20194;-77
2022/03/08 04:39:36;;;;;;;0.50;0.50;;;-1.10;99.90;;;;;;5091599;28;20554;-78
2022/03/08 04:42:04;;;;;;;0.50;0.47;;;-1.10;99.90;;;;;;5092303;28;20670;-76
2022/03/08 04:44:31;;;;;;;1.30;0.82;;;-1.10;99.90;;;;;;5091034;28;20206;-77
2022/03/08 04:46:57;;;;;;;1.92;1.83;;;-1.10;99.90;;;;;;5092492;28;20197;-77
2022/03/08 04:49:25;;;;;;;0.52;0.50;;;-1.10;99.90;;;;;;5091794;28;20197;-76
2022/03/08 04:51:51;;;;;;;0.50;0.50;;;-1.00;99.90;;;;;;5092184;28;20304;-76
2022/03/08 04:54:18;;;;;;;0.50;0.40;;;-1.00;99.90;;;;;;5092106;28;20689;-77
2022/03/08 04:56:46;;;;;;;0.73;0.73;;;-1.00;99.90;;;;;;5092743;28;20204;-77
2022/03/08 04:59:13;;;;;;;0.50;0.40;;;-1.00;99.90;;;;;;5091946;28;20196;-78
2022/03/08 05:01:40;;;;;;;0.50;0.40;;;-1.00;99.90;;;;;;5092157;28;20213;-77
2022/03/08 05:04:06;;;;;;;0.50;0.40;;;-0.90;99.90;;;;;;5091320;28;20205;-78
2022/03/08 05:06:33;;;;;;;0.50;0.50;;;-0.90;99.90;;;;;;5092342;28;20201;-77
2022/03/08 05:09:00;;;;;;;0.50;0.50;;;-0.90;99.90;;;;;;5091920;28;20194;-79
2022/03/08 05:11:27;;;;;;;0.82;0.82;;;-0.90;99.90;;;;;;5091580;28;20558;-77
2022/03/08 05:13:55;;;;;;;0.50;0.40;;;-0.90;99.90;;;;;;5092110;28;20187;-76
2022/03/08 05:16:22;;;;;;;0.50;0.50;;;-1.00;99.90;;;;;;5091602;28;20196;-78
2022/03/08 05:18:48;;;;;;;1.90;0.93;;;-1.00;99.90;;;;;;5091357;28;20192;-79
2022/03/08 05:21:15;;;;;;;0.85;0.85;;;-1.00;99.90;;;;;;5092164;28;20227;-77
2022/03/08 05:23:42;;;;;;;0.60;0.60;;;-0.90;99.90;;;;;;5092265;28;20674;-77
2022/03/08 05:26:09;;;;;;;0.50;0.40;;;-0.90;99.90;;;;;;5091751;28;20194;-77
2022/03/08 05:28:35;;;;;;;0.50;0.50;;;-0.80;99.90;;;;;;5091850;28;20551;-77
2022/03/08 05:31:04;;;;;;;0.50;0.40;;;-0.90;99.90;;;;;;5090814;28;20285;-78
2022/03/08 05:33:30;;;;;;;2.78;2.67;;;-0.90;99.90;;;;;;5091687;28;20236;-78
2022/03/08 05:35:57;;;;;;;0.50;0.50;;;-0.90;99.90;;;;;;5084355;28;20392;-76
2022/03/08 05:38:24;;;;;;;0.50;0.50;;;-0.90;99.90;;;;;;5081099;28;20551;-79
2022/03/08 05:40:51;;;;;;;0.50;0.47;;;-0.90;99.90;;;;;;5073463;28;20197;-78
2022/03/08 05:43:17;;;;;;;0.50;0.45;;;-0.90;99.90;;;;;;5075683;28;20216;-78
2022/03/08 05:45:44;;;;;;;0.50;0.40;;;-1.00;99.90;;;;;;5072365;28;20194;-80
2022/03/08 05:48:12;;;;;;;0.50;0.50;;;-1.00;99.90;;;;;;5072261;28;20198;-79
2022/03/08 05:50:39;;;;;;;0.50;0.50;;;-1.00;99.90;;;;;;5071847;28;20190;-78
2022/03/08 05:53:06;;;;;;;2.88;2.67;;;-0.90;99.90;;;;;;5072174;28;20214;-78
2022/03/08 05:55:32;;;;;;;0.50;0.50;;;-1.00;99.90;;;;;;5073989;28;20182;-78
2022/03/08 05:57:59;;;;;;;0.50;0.40;;;-0.90;99.90;;;;;;5076596;28;20198;-78
2022/03/08 06:00:26;;;;;;;1.77;1.67;;;-0.80;99.90;;;;;;5075715;28;20203;-77
2022/03/08 06:02:53;;;;;;;0.60;0.60;;;-0.80;99.90;;;;;;5078311;28;20225;-76
2022/03/08 06:05:22;;;;;;;0.50;0.40;;;-0.80;99.90;;;;;;5085413;28;20217;-77
2022/03/08 06:07:49;;;;;;;0.93;0.93;;;-0.80;99.90;;;;;;5076516;28;20207;-79
2022/03/08 06:10:15;;;;;;;0.50;0.50;;;-0.80;99.90;;;;;;5074372;28;20192;-79
2022/03/08 06:12:44;;;;;;;0.50;0.45;;;-0.80;99.90;;;;;;5075184;28;20225;-79
2022/03/08 06:15:11;;;;;;;0.50;0.50;;;-0.80;99.90;;;;;;5075387;28;20193;-76
2022/03/08 06:17:38;;;;;;;1.05;1.05;;;-0.80;99.90;;;;;;5074999;28;20236;-76
2022/03/08 06:20:06;;;;;;;0.50;0.50;;;-0.70;99.90;;;;;;5073403;28;20190;-75
2022/03/08 06:22:34;;;;;;;0.50;0.40;;;-0.70;99.90;;;;;;5073832;28;20214;-78
2022/03/08 06:25:01;;;;;;;0.50;0.40;;;-0.60;99.90;;;;;;5073173;28;20232;-77
2022/03/08 06:27:27;;;;;;;0.50;0.40;;;-0.50;99.90;;;;;;5074421;28;20195;-78
2022/03/08 06:29:54;;;;;;;0.50;0.45;;;-0.30;99.90;;;;;;5073305;28;20202;-78
2022/03/08 06:32:21;;;;;;;0.60;0.40;;;-0.30;99.90;;;;;;5074339;28;20226;-78
2022/03/08 06:34:50;;;;;;;0.57;0.57;;;-0.20;99.90;;;;;;5076880;28;20676;-78
2022/03/08 06:37:17;;;;;;;0.98;0.98;;;-0.10;99.90;;;;;;5075107;28;20206;-77
2022/03/08 06:39:45;;;;;;;0.60;0.60;;;0.00;99.90;;;;;;5073276;28;20652;-77
2022/03/08 06:42:12;;;;;;;0.50;0.40;;;0.20;99.90;;;;;;5074324;28;20217;-78
2022/03/08 06:44:40;;;;;;;0.50;0.50;;;0.20;99.90;;;;;;5074374;28;20304;-76
2022/03/08 06:47:07;;;;;;;0.90;0.70;;;0.40;99.90;;;;;;5074519;28;20658;-77
2022/03/08 06:49:34;;;;;;;1.52;1.45;;;0.60;99.90;;;;;;5074060;28;20610;-76
2022/03/08 06:52:01;;;;;;;0.50;0.40;;;0.80;99.90;;;;;;5074575;28;20222;-77
2022/03/08 06:54:28;;;;;;;0.50;0.40;;;1.00;99.90;;;;;;5074418;28;20191;-76
2022/03/08 06:56:56;;;;;;;0.50;0.40;;;1.20;99.90;;;;;;5073881;28;20195;-77
2022/03/08 06:59:24;;;;;;;0.98;0.98;;;1.40;99.90;;;;;;5074398;28;20195;-80
2022/03/08 07:01:50;;;;;;;0.50;0.40;;;1.60;99.90;;;;;;5074575;28;20219;-78
2022/03/08 07:04:17;;;;;;;1.70;0.82;;;1.70;99.90;;;;;;5072794;28;20222;-77
2022/03/08 07:06:44;;;;;;;0.85;0.68;;;1.90;99.90;;;;;;5072935;28;20203;-77
2022/03/08 07:09:11;;;;;;;2.15;1.50;;;2.00;99.90;;;;;;5073353;28;20220;-78
2022/03/08 07:11:40;;;;;;;0.60;0.60;;;2.20;99.90;;;;;;5073655;28;20231;-78
2022/03/08 07:14:08;;;;;;;0.50;0.40;;;2.30;99.90;;;;;;5073987;28;20284;-78
2022/03/08 07:16:35;;;;;;;0.50;0.50;;;2.40;99.90;;;;;;5073437;28;20207;-78
2022/03/08 07:19:01;;;;;;;0.60;0.60;;;2.50;99.90;;;;;;5073070;28;20199;-78
2022/03/08 07:21:29;;;;;;;0.50;0.43;;;2.60;99.90;;;;;;5073202;28;20201;-78
2022/03/08 07:23:56;;;;;;;0.50;0.50;;;2.70;99.90;;;;;;5073681;28;20568;-78
2022/03/08 07:26:22;;;;;;;0.50;0.40;;;2.70;99.90;;;;;;5073564;28;20205;-79
2022/03/08 07:28:49;;;;;;;2.05;1.95;;;2.90;99.90;;;;;;5073359;28;20611;-79
2022/03/08 07:31:17;;;;;;;0.60;0.50;;;3.00;99.90;;;;;;5073369;28;20194;-78
2022/03/08 07:33:44;;;;;;;1.40;1.30;;;3.00;99.90;;;;;;5079529;28;20204;-78
2022/03/08 07:36:11;;;;;;;0.50;0.40;;;3.10;99.90;;;;;;5089815;28;20279;-78
2022/03/08 07:38:38;;;;;;;0.80;0.77;;;3.10;99.90;;;;;;5093263;28;20196;-78
2022/03/08 07:41:05;;;;;;;3.70;0.77;;;3.20;99.90;;;;;;5092151;28;20193;-78
2022/03/08 07:43:34;;;;;;;1.35;1.00;;;3.30;99.90;;;;;;5091787;28;20215;-78
2022/03/08 07:46:01;;;;;;;0.50;0.50;;;3.50;99.90;;;;;;5092617;28;20219;-78
2022/03/08 07:48:29;;;;;;;0.93;0.93;;;4.20;99.90;;;;;;5093137;28;20670;-76
2022/03/08 07:50:56;;;;;;;0.50;0.40;;;5.10;99.90;;;;;;5091073;28;20527;-79
2022/03/08 07:53:22;;;;;;;0.50;0.50;;;6.00;99.90;;;;;;5093059;28;20571;-78
2022/03/08 07:55:49;;;;;;;1.85;1.02;;;6.60;99.90;;;;;;5093232;28;20663;-78
2022/03/08 07:58:16;;;;;;;0.77;0.60;;;7.10;99.90;;;;;;5092896;28;20189;-78
2022/03/08 08:00:43;;;;;;;0.50;0.40;;;7.60;99.90;;;;;;5092425;28;20200;-76
2022/03/08 08:03:10;;;;;;;1.05;1.05;;;8.00;99.90;;;;;;5091382;28;20221;-77
2022/03/08 08:05:39;;;;;;;0.50;0.40;;;8.80;99.40;;;;;;5092419;28;20213;-77
2022/03/08 08:08:07;;;;;;;0.50;0.40;;;9.60;94.90;;;;;;5092353;28;20229;-77
2022/03/08 08:10:34;;;;;;;0.50;0.40;;;10.10;90.20;;;;;;5092136;28;20195;-78
2022/03/08 08:13:01;;;;;;;0.50;0.40;;;10.80;85.40;;;;;;5092797;28;20223;-76
2022/03/08 08:15:28;;;;;;;0.50;0.40;;;11.20;79.00;;;;;;5092621;28;20196;-77
2022/03/08 08:17:55;;;;;;;0.80;0.80;;;12.40;75.60;;;;;;5091717;28;20204;-77
2022/03/08 08:20:22;;;;;;;0.80;0.80;;;13.90;68.00;;;;;;5091428;28;20189;-77
2022/03/08 08:22:50;;;;;;;1.45;1.35;;;14.70;61.90;;;;;;5091982;28;20212;-77
2022/03/08 08:25:17;;;;;;;0.70;0.70;;;15.00;57.40;;;;;;5092599;28;20217;-77
2022/03/08 08:27:44;;;;;;;0.50;0.30;;;15.10;56.10;;;;;;5091876;28;20231;-78
2022/03/08 08:30:11;;;;;;;0.60;0.50;;;16.10;55.40;;;;;;5091788;28;20432;-78
2022/03/08 08:32:38;;;;;;;0.50;0.40;;;16.70;53.90;;;;;;5091569;28;20474;-77
2022/03/08 08:35:06;;;;;;;1.13;0.93;;;16.80;51.50;;;;;;5092134;28;20798;-75
2022/03/08 08:37:33;;;;;;;0.50;0.40;;;16.90;52.00;;;;;;5091815;28;20926;-77
2022/03/08 08:40:01;;;;;;;1.70;0.57;;;17.00;49.70;;;;;;5091185;28;20464;-76
2022/03/08 08:42:28;;;;;;;0.70;0.70;;;17.00;49.20;;;;;;5091517;28;20467;-77
2022/03/08 08:44:55;;;;;;;1.23;1.13;;;17.10;49.10;;;;;;5092073;28;20836;-77
2022/03/08 08:47:22;;;;;;;2.03;1.30;;;17.50;48.90;;;;;;5091972;28;20442;-78
2022/03/08 08:49:48;;;;;;;0.73;0.73;;;17.60;47.90;;;;;;5091043;28;20462;-77
2022/03/08 08:52:15;;;;;;;0.50;0.30;;;17.90;47.10;;;;;;5092113;28;20459;-73
2022/03/08 08:54:42;;;;;;;2.40;2.30;;;17.90;47.60;;;;;;5091932;28;20435;-74
2022/03/08 08:57:10;;;;;;;0.53;0.40;;;18.20;46.30;;;;;;5091614;28;20443;-76
2022/03/08 08:59:36;;;;;;;0.50;0.30;;;18.60;46.60;;;;;;5090933;28;20435;-76
2022/03/08 09:02:04;;;;;;;1.57;1.00;;;18.80;46.50;;;;;;5091511;28;20451;-77
2022/03/08 09:04:30;;;;;;;0.60;0.47;;;17.90;44.90;;;;;;5091051;28;20522;-77
2022/03/08 09:06:57;;;;;;;0.50;0.40;;;18.40;45.80;;;;;;5091970;28;20964;-77
2022/03/08 09:09:24;;;;;;;0.50;0.30;;;18.40;45.50;;;;;;5090634;28;20453;-77
2022/03/08 09:11:50;;;;;;;1.27;1.20;;;18.10;44.90;;;;;;5091657;28;20468;-77
2022/03/08 09:14:19;;;;;;;1.37;1.27;;;17.60;43.30;;;;;;5091539;28;20542;-77
2022/03/08 09:16:45;;;;;;;0.50;0.40;;;14.80;44.40;;;;;;5093376;28;20431;-76
2022/03/08 09:19:12;;;;;;;0.67;0.60;;;16.00;46.10;;;;;;5090680;28;20452;-76
2022/03/08 09:21:39;;;;;;;0.50;0.37;;;17.00;44.10;;;;;;5091725;28;20478;-76
2022/03/08 09:24:07;;;;;;;0.87;0.83;;;16.80;43.50;;;;;;5091147;28;20439;-77
2022/03/08 09:26:34;;;;;;;1.27;1.17;;;16.20;43.30;;;;;;5092993;28;20486;-77
2022/03/08 09:29:00;;;;;;;1.23;1.07;;;15.30;42.50;;;;;;5090672;28;20439;-76
2022/03/08 09:31:29;;;;;;;0.60;0.50;;;14.20;44.10;;;;;;5094578;28;20809;-76
2022/03/08 09:33:55;;;;;;;3.13;1.80;;;13.80;44.70;;;;;;5095243;28;20428;-76
2022/03/08 09:36:22;;;;;;;7.95;2.53;;;12.90;44.20;;;;;;5095525;28;20442;-72
2022/03/08 09:38:49;;;;;;;1.63;1.40;;;12.80;45.30;;;;;;5095033;28;20203;-76
2022/03/08 09:41:16;;;;;;;0.90;0.90;;;12.60;45.50;;;;;;5095220;28;20193;-75
2022/03/08 09:43:43;;;;;;;2.45;1.10;;;12.40;46.20;;;;;;5095545;28;20193;-76
2022/03/08 09:46:10;;;;;;;0.60;0.50;;;12.20;46.10;;;;;;5094949;28;20228;-77
2022/03/08 09:48:38;;;;;;;1.05;1.05;;;12.30;46.90;;;;;;5095106;28;20562;-76
2022/03/08 09:51:06;;;;;;;0.50;0.40;;;12.50;46.40;;;;;;5094099;28;20196;-76
2022/03/08 09:53:34;;;;;;;1.27;1.05;;;12.40;46.90;;;;;;5094922;28;20292;-76
2022/03/08 09:56:02;;;;;;;1.17;1.08;;;12.60;46.50;;;;;;5094815;28;20246;-78
2022/03/08 09:58:29;;;;;;;1.63;1.52;;;12.80;46.60;;;;;;5094743;28;20204;-77
2022/03/08 10:00:59;;;;;;;2.35;0.60;;;12.60;45.30;;;;;;5094032;28;20197;-77
2022/03/08 10:03:34;;;;;;;2.83;2.65;;;12.80;46.20;;;;;;5093179;28;20224;-77
2022/03/08 10:06:02;;;;;;;0.60;0.50;;;13.70;45.80;;;;;;5094557;28;20219;-77
2022/03/08 10:08:29;;;;;;;9.88;0.98;;;14.70;45.10;;;;;;5094793;28;20205;-77
2022/03/08 10:10:59;;;;;;;1.33;1.17;;;13.90;44.60;;;;;;5093987;28;20682;-76
2022/03/08 10:13:28;;;;;;;2.78;1.65;;;13.90;44.50;;;;;;5094864;28;20490;-77
2022/03/08 10:16:09;;;;;;;3.70;1.10;;;13.90;44.90;;;;;;5095022;28;20214;-77
2022/03/08 10:18:37;;;;;;;0.50;0.40;;;13.70;45.40;;;;;;5094397;28;20438;-77
2022/03/08 10:21:10;;;;;;;1.53;1.23;;;14.60;45.10;;;;;;5093900;28;20196;-77
2022/03/08 10:23:41;;;;;;;0.50;0.40;;;14.70;43.80;;;;;;5094716;28;20463;-77
2022/03/08 10:26:11;;;;;;;1.27;1.17;;;14.00;44.90;;;;;;5094085;28;20518;-77
2022/03/08 10:28:45;;;;;;;0.60;0.53;;;14.50;44.10;;;;;;5094349;28;20485;-77
2022/03/08 10:31:14;;;;;;;1.10;1.00;;;14.70;43.70;;;;;;5093964;28;20911;-78
2022/03/08 10:33:41;;;;;;;0.87;0.87;;;14.20;44.40;;;;;;5094183;28;20235;-77
2022/03/08 10:36:15;;;;;;;0.60;0.60;;;13.10;44.80;;;;;;5094991;28;20435;-76
2022/03/08 10:39:01;;;;;;;1.03;0.93;;;14.00;44.90;;;;;;5094319;28;20439;-76
2022/03/08 10:41:28;;;;;;;0.50;0.30;;;13.70;44.30;;;;;;5094011;28;20445;-77
2022/03/08 10:43:57;;;;;;;1.63;1.33;;;14.00;44.70;;;;;;5094484;28;20439;-76
2022/03/08 10:46:25;;;;;;;0.60;0.50;;;14.10;43.60;;;;;;5094482;28;20467;-76
2022/03/08 10:48:53;;;;;;;0.90;0.90;;;14.00;44.20;;;;;;5093916;28;20439;-76
2022/03/08 10:51:22;;;;;;;0.70;0.70;;;14.30;43.70;;;;;;5094508;28;20446;-77
2022/03/08 10:53:49;;;;;;;1.27;1.07;;;13.90;44.20;;;;;;5094079;28;20450;-77
2022/03/08 10:56:23;;;;;;;1.77;1.63;;;14.30;44.30;;;;;;5093886;28;20431;-76
2022/03/08 10:58:50;;;;;;;1.43;1.33;;;14.80;43.60;;;;;;5093804;28;20479;-76
2022/03/08 11:01:17;;;;;;;1.90;1.13;;;14.20;44.20;;;;;;5094284;28;20443;-77
2022/03/08 11:03:56;;;;;;;0.80;0.80;;;14.30;43.80;;;;;;5092488;28;20443;-77
2022/03/08 11:06:25;;;;;;;0.60;0.50;;;14.70;43.80;;;;;;5094469;28;20459;-74
2022/03/08 11:08:53;;;;;;;1.13;0.60;;;14.40;43.50;;;;;;5093419;28;20435;-75
2022/03/08 11:11:21;;;;;;;0.70;0.70;;;14.60;43.50;;;;;;5093780;28;20476;-77
2022/03/08 11:13:51;;;;;;;1.20;0.60;;;14.40;43.50;;;;;;5093894;28;20441;-78
2022/03/08 11:16:19;;;;;;;5.20;1.53;;;14.10;44.10;;;;;;5094083;28;20439;-78
2022/03/08 11:18:49;;;;;;;1.30;1.20;;;14.70;43.70;;;;;;5093323;28;20436;-76
2022/03/08 11:21:17;;;;;;;0.60;0.40;;;14.30;43.90;;;;;;5094100;28;20480;-76
2022/03/08 11:23:45;;;;;;;0.83;0.80;;;14.60;43.40;;;;;;5093499;28;20439;-78
2022/03/08 11:26:14;;;;;;;0.60;0.60;;;14.90;43.40;;;;;;5093737;28;20467;-78
2022/03/08 11:28:45;;;;;;;0.50;0.33;;;15.30;43.80;;;;;;5094602;28;20858;-78
2022/03/08 11:31:12;;;;;;;0.50;0.40;;;16.20;44.60;;;;;;5093605;28;20502;-77
2022/03/08 11:33:48;;;;;;;1.63;1.40;;;15.80;42.50;;;;;;5093167;28;20997;-77
2022/03/08 11:36:22;;;;;;;0.50;0.40;;;14.80;42.60;;;;;;5093477;28;20424;-77
2022/03/08 11:39:13;;;;;;;0.50;0.40;;;15.20;44.70;;;;;;5092946;28;20447;-76
2022/03/08 11:41:40;;;;;;;2.07;1.87;;;16.30;42.50;;;;;;5093525;28;20458;-78
2022/03/08 11:44:07;;;;;;;0.50;0.30;;;16.60;41.70;;;;;;5093093;28;20449;-77
2022/03/08 11:46:34;;;;;;;0.73;0.70;;;16.80;42.20;;;;;;5094020;28;20818;-79
2022/03/08 11:49:03;;;;;;;0.50;0.40;;;17.80;42.10;;;;;;5092952;28;20462;-78
2022/03/08 11:51:31;;;;;;;0.70;0.60;;;15.90;41.00;;;;;;5093751;28;20771;-77
2022/03/08 11:54:06;;;;;;;1.60;1.50;;;16.40;41.80;;;;;;5093133;28;20790;-78
2022/03/08 11:56:46;;;;;;;0.50;0.40;;;16.60;41.20;;;;;;5093624;28;20420;-78
2022/03/08 11:59:13;;;;;;;2.20;0.60;;;16.20;41.50;;;;;;5092761;28;20438;-77
2022/03/08 12:01:40;;;;;;;0.60;0.40;;;16.30;41.40;;;;;;5093168;28;20466;-78
2022/03/08 12:04:10;;;;;;;0.50;0.30;;;16.40;42.00;;;;;;5100665;28;20508;-78
2022/03/08 12:06:38;;;;;;;1.07;1.00;;;16.90;41.50;;;;;;5106511;28;20470;-79
2022/03/08 12:09:10;;;;;;;0.90;0.90;;;17.40;40.80;;;;;;5105682;28;20439;-78
2022/03/08 12:11:42;;;;;;;0.60;0.60;;;17.00;39.90;;;;;;5103371;28;20459;-78
2022/03/08 12:14:16;;;;;;;0.60;0.47;;;17.00;41.10;;;;;;5107765;28;20434;-79
2022/03/08 12:16:45;;;;;;;0.50;0.37;;;16.80;40.70;;;;;;5107797;28;20517;-79
2022/03/08 12:19:20;;;;;;;0.53;0.50;;;17.00;40.50;;;;;;5106747;28;20442;-78
2022/03/08 12:21:54;;;;;;;0.50;0.30;;;16.60;40.40;;;;;;5106395;28;20458;-78
2022/03/08 12:24:22;;;;;;;0.60;0.60;;;16.50;40.80;;;;;;5106859;28;20541;-74
2022/03/08 12:27:03;;;;;;;0.50;0.40;;;16.70;40.10;;;;;;5107506;28;20478;-78
2022/03/08 12:29:36;;;;;;;0.50;0.40;;;16.70;40.30;;;;;;5106458;28;20422;-76
2022/03/08 12:32:34;;;;;;;1.23;0.87;;;15.80;40.20;;;;;;5106107;28;20611;-78
2022/03/08 12:35:07;;;;;;;0.60;0.50;;;15.70;40.50;;;;;;5100871;28;20423;-78
2022/03/08 12:37:40;;;;;;;0.80;0.80;;;15.50;40.60;;;;;;5094921;28;20747;-77
2022/03/08 12:40:09;;;;;;;0.50;0.40;;;15.70;41.30;;;;;;5093317;28;20438;-77
2022/03/08 12:42:38;;;;;;;0.60;0.50;;;16.20;40.90;;;;;;5098561;28;20456;-77
2022/03/08 12:45:08;;;;;;;1.20;0.80;;;15.90;40.10;;;;;;5096465;28;20887;-77
2022/03/08 12:47:39;;;;;;;0.50;0.37;;;15.90;41.30;;;;;;5093408;28;20481;-78
2022/03/08 12:50:09;;;;;;;0.50;0.30;;;16.10;40.70;;;;;;5092304;28;20917;-78
2022/03/08 12:52:40;;;;;;;0.80;0.40;;;16.70;40.50;;;;;;5092986;28;20462;-78